aviador You're here:

OIZI Decoded Metar

IRAN SHAHR in IRAN
Report Time2017-08-24 03:00:00
UTC Time2017-08-24 03:08:57
Flight Rules vfr VFR
WindCalm
Visibility9999 m
Phenomena:N/A
Clouds:N/A
Expected CloudBase > 6,800 ft AGL from Temp-Dew spread
CeilingNone
Temp31°C (ISA +20)
Dew Point14°C (35% RH)
Heat Index30.3°C
QNH1007 hPa
Density Alt4,619 ft
Elevation1,939 ft
Report Wrong Elevation
Raw Report
METAR OIZI 240300Z 00000KT CAVOK 31/14 Q1007=

Extra information for OIZI:More info

Metar Taf Metar & Taf Last 4 Metars F.Rules Stats Wind Profile Meteogram Temp Stats Airport Information Weather charts Add Link Nearby VenuesMetar ALERT Operation Metar Decoded Social comments